createdAt,value
2023-06-07T00:05:04.772Z,1025
2023-06-07T00:17:04.621Z,1025
2023-06-07T00:29:04.584Z,1025
2023-06-07T00:41:04.700Z,1025
2023-06-07T00:53:04.681Z,1025
2023-06-07T01:05:04.634Z,1025
2023-06-07T01:17:04.586Z,1025
2023-06-07T01:29:04.735Z,1025
2023-06-07T01:41:04.725Z,1025
2023-06-07T01:53:04.666Z,1025
2023-06-07T02:05:04.824Z,1025
2023-06-07T02:17:04.786Z,1025
2023-06-07T02:29:04.774Z,1025
2023-06-07T02:41:04.666Z,1025
2023-06-07T02:53:04.843Z,1025
2023-06-07T03:05:04.763Z,1025
2023-06-07T03:17:04.776Z,1025
2023-06-07T03:29:04.684Z,1025
2023-06-07T03:41:04.902Z,1025
2023-06-07T03:53:04.811Z,1025
2023-06-07T04:05:04.852Z,1025
2023-06-07T04:17:04.961Z,1025
2023-06-07T04:29:04.896Z,1025
2023-06-07T04:41:04.837Z,1025
2023-06-07T04:53:04.816Z,1024
2023-06-07T05:05:04.949Z,1025
2023-06-07T05:17:04.959Z,1025
2023-06-07T05:29:04.860Z,1025
2023-06-07T05:41:04.884Z,1025
2023-06-07T05:53:04.981Z,1025
2023-06-07T06:05:05.010Z,1025
2023-06-07T06:17:04.951Z,1025
2023-06-07T06:29:05.092Z,1025
2023-06-07T06:41:07.525Z,1025
2023-06-07T06:53:04.987Z,1025
2023-06-07T07:05:04.921Z,1025
2023-06-07T07:29:05.125Z,1026
2023-06-07T07:41:05.041Z,1026
2023-06-07T07:53:04.985Z,1026
2023-06-07T08:05:05.335Z,1026
2023-06-07T08:17:05.099Z,1026
2023-06-07T08:29:05.032Z,1026
2023-06-07T08:41:05.030Z,1026
2023-06-07T08:53:05.161Z,1026
2023-06-07T09:05:05.689Z,1026
2023-06-07T09:18:04.219Z,1027
2023-06-07T09:29:06.148Z,1027
2023-06-07T09:41:05.191Z,1027
2023-06-07T09:53:05.214Z,1027
2023-06-07T10:05:05.188Z,1027
2023-06-07T10:17:29.620Z,1028
2023-06-07T10:29:05.265Z,1028
2023-06-07T10:41:05.208Z,1028
2023-06-07T10:53:05.172Z,1028
2023-06-07T11:05:05.514Z,1028
2023-06-07T11:17:05.245Z,1028
2023-06-07T11:29:05.404Z,1028
2023-06-07T11:41:05.289Z,1028
2023-06-07T11:53:05.362Z,1028
2023-06-07T12:05:05.188Z,1029
2023-06-07T12:17:05.475Z,1029
2023-06-07T12:29:05.327Z,1029
2023-06-07T12:41:05.589Z,1029
2023-06-07T12:53:05.524Z,1029
2023-06-07T13:05:05.429Z,1029
2023-06-07T13:17:05.616Z,1029
2023-06-07T13:29:05.786Z,1029
2023-06-07T13:41:05.503Z,1030
2023-06-07T13:53:05.463Z,1030
2023-06-07T14:05:05.850Z,1030
2023-06-07T14:29:05.692Z,1030
2023-06-07T14:41:05.492Z,1029
2023-06-07T14:53:05.517Z,1030
2023-06-07T15:05:05.640Z,1031
2023-06-07T15:17:05.596Z,1030
2023-06-07T15:29:05.407Z,1029
2023-06-07T15:41:07.331Z,1029
2023-06-07T15:53:07.664Z,1029
2023-06-07T16:05:05.677Z,1029
2023-06-07T16:17:05.560Z,1029
2023-06-07T16:29:06.161Z,1029
2023-06-07T16:41:05.608Z,1029
2023-06-07T16:53:05.630Z,1028
2023-06-07T17:05:05.524Z,1028
2023-06-07T17:17:06.407Z,1027
2023-06-07T17:29:16.664Z,1027
2023-06-07T17:41:05.773Z,1027
2023-06-07T17:53:05.669Z,1027
2023-06-07T18:05:05.666Z,1026
2023-06-07T18:17:05.594Z,1026
2023-06-07T18:29:05.788Z,1026
2023-06-07T18:41:05.712Z,1026
2023-06-07T18:53:05.715Z,1025
2023-06-07T19:05:05.929Z,1024
2023-06-07T19:17:05.892Z,1024
2023-06-07T19:29:05.746Z,1023
2023-06-07T19:41:05.737Z,1023
2023-06-07T19:53:06.000Z,1023
2023-06-07T20:05:05.841Z,1023
2023-06-07T20:17:05.771Z,1023
2023-06-07T20:29:05.909Z,1023
2023-06-07T20:41:05.958Z,1023
2023-06-07T20:53:05.810Z,1023
2023-06-07T21:05:05.821Z,1023
2023-06-07T21:17:05.848Z,1023
2023-06-07T21:29:08.514Z,1023
2023-06-07T21:41:05.920Z,1023
2023-06-07T21:53:05.897Z,1023
2023-06-07T22:05:05.859Z,1023
2023-06-07T22:17:06.016Z,1023
2023-06-07T22:29:05.971Z,1023
2023-06-07T22:41:05.927Z,1023
2023-06-07T22:53:06.033Z,1023
2023-06-07T23:05:06.011Z,1023
2023-06-07T23:17:06.014Z,1023
2023-06-07T23:29:06.079Z,1023
2023-06-07T23:41:06.137Z,1023
2023-06-07T23:53:06.034Z,1022
